SIV weather

Sullivan County Airport
Monticello, Indiana, United States

Public forecast

Using degrees Fahrenheit for public forecast. Weather courtesy of forecast.io.

Closest aviation weather report (METAR) to Sullivan County Airport

Closest report is Robinson Municipal Airport, 11.1 nm (20.6 km) WSW. Retrieved 2019/10/15 06:35 UTC (0 seconds ago):

KRSV 150635Z AUTO 00000KT 10SM CLR 03/03 A3007 RMK AO2 T00340034

Closest aviation forecast (TAF) to Sullivan County Airport

Closest forecast is Terre Haute Regional Airport, Hulman Field, 21.3 nm (39.4 km) NNE. Retrieved 2019/10/15 06:24 UTC (0 seconds ago):

TAF KHUF 150522Z 1506/1606 VRB04KT P6SM SKC FM151800 20011G21KT P6SM VCSH BKN090 FM160000 24007KT 6SM SHRA BR BKN026 FM160500 31011G19KT 6SM SHRA BR BKN050